sensor_id;sensor_type;location;lat;lon;timestamp;P1;durP1;ratioP1;P2;durP2;ratioP2
6757;SDS011;3416;53.074;8.822;2023-01-08T00:01:58;5.35;;;4.18;;
6757;SDS011;3416;53.074;8.822;2023-01-08T00:04:29;6.30;;;3.95;;
6757;SDS011;3416;53.074;8.822;2023-01-08T00:07:02;4.70;;;4.15;;
6757;SDS011;3416;53.074;8.822;2023-01-08T00:09:29;6.97;;;4.30;;
6757;SDS011;3416;53.074;8.822;2023-01-08T00:11:58;5.32;;;4.30;;
6757;SDS011;3416;53.074;8.822;2023-01-08T00:14:37;6.55;;;4.55;;
6757;SDS011;3416;53.074;8.822;2023-01-08T00:17:04;6.75;;;4.95;;
6757;SDS011;3416;53.074;8.822;2023-01-08T00:19:32;9.80;;;5.25;;
6757;SDS011;3416;53.074;8.822;2023-01-08T00:22:01;5.55;;;5.05;;
6757;SDS011;3416;53.074;8.822;2023-01-08T00:24:29;5.50;;;4.63;;
6757;SDS011;3416;53.074;8.822;2023-01-08T00:27:00;8.95;;;5.35;;
6757;SDS011;3416;53.074;8.822;2023-01-08T00:29:30;5.18;;;4.03;;
6757;SDS011;3416;53.074;8.822;2023-01-08T00:32:03;8.85;;;4.57;;
6757;SDS011;3416;53.074;8.822;2023-01-08T00:34:36;5.72;;;4.15;;
6757;SDS011;3416;53.074;8.822;2023-01-08T00:37:04;5.05;;;4.30;;
6757;SDS011;3416;53.074;8.822;2023-01-08T00:39:31;8.05;;;4.70;;
6757;SDS011;3416;53.074;8.822;2023-01-08T00:41:58;4.65;;;3.70;;
6757;SDS011;3416;53.074;8.822;2023-01-08T00:44:24;4.38;;;3.80;;
6757;SDS011;3416;53.074;8.822;2023-01-08T00:46:51;5.30;;;4.10;;
6757;SDS011;3416;53.074;8.822;2023-01-08T00:49:18;4.82;;;4.38;;
6757;SDS011;3416;53.074;8.822;2023-01-08T00:51:45;6.05;;;4.65;;
6757;SDS011;3416;53.074;8.822;2023-01-08T00:54:13;6.32;;;4.32;;
6757;SDS011;3416;53.074;8.822;2023-01-08T00:56:40;4.70;;;4.18;;
6757;SDS011;3416;53.074;8.822;2023-01-08T00:59:07;7.63;;;5.53;;
6757;SDS011;3416;53.074;8.822;2023-01-08T01:01:33;4.57;;;4.10;;
6757;SDS011;3416;53.074;8.822;2023-01-08T01:04:01;5.53;;;4.35;;
6757;SDS011;3416;53.074;8.822;2023-01-08T01:06:28;5.85;;;4.10;;
6757;SDS011;3416;53.074;8.822;2023-01-08T01:08:55;5.57;;;4.63;;
6757;SDS011;3416;53.074;8.822;2023-01-08T01:11:24;4.47;;;4.07;;
6757;SDS011;3416;53.074;8.822;2023-01-08T01:13:53;8.10;;;4.63;;
6757;SDS011;3416;53.074;8.822;2023-01-08T01:16:20;4.93;;;3.67;;
6757;SDS011;3416;53.074;8.822;2023-01-08T01:18:48;8.45;;;4.88;;
6757;SDS011;3416;53.074;8.822;2023-01-08T01:21:17;3.65;;;3.35;;
6757;SDS011;3416;53.074;8.822;2023-01-08T01:23:47;7.13;;;4.43;;
6757;SDS011;3416;53.074;8.822;2023-01-08T01:26:15;4.20;;;3.80;;
6757;SDS011;3416;53.074;8.822;2023-01-08T01:28:45;4.97;;;4.55;;
6757;SDS011;3416;53.074;8.822;2023-01-08T01:31:12;6.57;;;5.07;;
6757;SDS011;3416;53.074;8.822;2023-01-08T01:33:40;5.70;;;4.50;;
6757;SDS011;3416;53.074;8.822;2023-01-08T01:36:08;4.75;;;4.25;;
6757;SDS011;3416;53.074;8.822;2023-01-08T01:38:36;4.72;;;3.70;;
6757;SDS011;3416;53.074;8.822;2023-01-08T01:41:03;4.15;;;3.58;;
6757;SDS011;3416;53.074;8.822;2023-01-08T01:43:37;6.50;;;4.72;;
6757;SDS011;3416;53.074;8.822;2023-01-08T01:48:59;5.60;;;3.90;;
6757;SDS011;3416;53.074;8.822;2023-01-08T01:51:32;4.65;;;3.90;;
6757;SDS011;3416;53.074;8.822;2023-01-08T01:54:00;4.15;;;3.70;;
6757;SDS011;3416;53.074;8.822;2023-01-08T01:56:30;4.95;;;4.55;;
6757;SDS011;3416;53.074;8.822;2023-01-08T01:58:58;4.07;;;3.70;;
6757;SDS011;3416;53.074;8.822;2023-01-08T02:01:25;15.73;;;4.20;;
6757;SDS011;3416;53.074;8.822;2023-01-08T02:03:55;4.72;;;4.32;;
6757;SDS011;3416;53.074;8.822;2023-01-08T02:06:24;3.78;;;3.45;;
6757;SDS011;3416;53.074;8.822;2023-01-08T02:09:00;4.72;;;4.00;;
6757;SDS011;3416;53.074;8.822;2023-01-08T02:11:31;5.90;;;5.03;;
6757;SDS011;3416;53.074;8.822;2023-01-08T02:14:05;7.05;;;4.70;;
6757;SDS011;3416;53.074;8.822;2023-01-08T02:16:38;4.93;;;4.22;;
6757;SDS011;3416;53.074;8.822;2023-01-08T02:19:13;4.68;;;3.70;;
6757;SDS011;3416;53.074;8.822;2023-01-08T02:21:48;4.28;;;3.40;;
6757;SDS011;3416;53.074;8.822;2023-01-08T02:24:28;4.30;;;3.90;;
6757;SDS011;3416;53.074;8.822;2023-01-08T02:27:09;3.90;;;3.50;;
6757;SDS011;3416;53.074;8.822;2023-01-08T02:29:38;4.43;;;3.35;;
6757;SDS011;3416;53.074;8.822;2023-01-08T02:32:06;4.93;;;3.47;;
6757;SDS011;3416;53.074;8.822;2023-01-08T02:34:32;6.55;;;3.38;;
6757;SDS011;3416;53.074;8.822;2023-01-08T02:36:59;4.20;;;3.80;;
6757;SDS011;3416;53.074;8.822;2023-01-08T02:39:34;3.70;;;3.40;;
6757;SDS011;3416;53.074;8.822;2023-01-08T02:42:13;4.70;;;4.18;;
6757;SDS011;3416;53.074;8.822;2023-01-08T02:44:49;4.90;;;3.47;;
6757;SDS011;3416;53.074;8.822;2023-01-08T02:47:23;3.88;;;3.10;;
6757;SDS011;3416;53.074;8.822;2023-01-08T02:49:57;4.30;;;3.20;;
6757;SDS011;3416;53.074;8.822;2023-01-08T02:52:33;3.45;;;3.13;;
6757;SDS011;3416;53.074;8.822;2023-01-08T02:55:06;4.95;;;3.15;;
6757;SDS011;3416;53.074;8.822;2023-01-08T02:57:36;4.95;;;3.78;;
6757;SDS011;3416;53.074;8.822;2023-01-08T03:00:04;3.72;;;3.35;;
6757;SDS011;3416;53.074;8.822;2023-01-08T03:02:32;6.13;;;4.15;;
6757;SDS011;3416;53.074;8.822;2023-01-08T03:05:04;7.18;;;4.35;;
6757;SDS011;3416;53.074;8.822;2023-01-08T03:07:37;8.23;;;4.05;;
6757;SDS011;3416;53.074;8.822;2023-01-08T03:10:05;6.40;;;3.65;;
6757;SDS011;3416;53.074;8.822;2023-01-08T03:12:36;5.63;;;3.10;;
6757;SDS011;3416;53.074;8.822;2023-01-08T03:15:12;5.38;;;4.22;;
6757;SDS011;3416;53.074;8.822;2023-01-08T03:17:44;3.88;;;3.38;;
6757;SDS011;3416;53.074;8.822;2023-01-08T03:20:14;3.60;;;3.25;;
6757;SDS011;3416;53.074;8.822;2023-01-08T03:22:43;4.05;;;3.55;;
6757;SDS011;3416;53.074;8.822;2023-01-08T03:25:13;4.47;;;4.07;;
6757;SDS011;3416;53.074;8.822;2023-01-08T03:27:43;5.15;;;3.35;;
6757;SDS011;3416;53.074;8.822;2023-01-08T03:30:12;4.30;;;3.28;;
6757;SDS011;3416;53.074;8.822;2023-01-08T03:32:41;3.75;;;3.40;;
6757;SDS011;3416;53.074;8.822;2023-01-08T03:35:10;6.28;;;4.20;;
6757;SDS011;3416;53.074;8.822;2023-01-08T03:37:41;4.80;;;3.70;;
6757;SDS011;3416;53.074;8.822;2023-01-08T03:40:12;5.50;;;4.05;;
6757;SDS011;3416;53.074;8.822;2023-01-08T03:42:44;3.85;;;3.45;;
6757;SDS011;3416;53.074;8.822;2023-01-08T03:45:11;6.32;;;4.95;;
6757;SDS011;3416;53.074;8.822;2023-01-08T03:47:39;3.88;;;3.20;;
6757;SDS011;3416;53.074;8.822;2023-01-08T03:50:08;5.95;;;4.50;;
6757;SDS011;3416;53.074;8.822;2023-01-08T03:52:39;4.57;;;3.78;;
6757;SDS011;3416;53.074;8.822;2023-01-08T03:55:06;4.60;;;4.10;;
6757;SDS011;3416;53.074;8.822;2023-01-08T03:57:34;6.20;;;4.05;;
6757;SDS011;3416;53.074;8.822;2023-01-08T04:00:02;5.95;;;4.15;;
6757;SDS011;3416;53.074;8.822;2023-01-08T04:02:30;4.05;;;3.35;;
6757;SDS011;3416;53.074;8.822;2023-01-08T04:04:57;6.70;;;3.75;;
6757;SDS011;3416;53.074;8.822;2023-01-08T04:07:24;4.30;;;3.90;;
6757;SDS011;3416;53.074;8.822;2023-01-08T04:09:51;5.47;;;3.85;;
6757;SDS011;3416;53.074;8.822;2023-01-08T04:12:18;6.68;;;3.55;;
6757;SDS011;3416;53.074;8.822;2023-01-08T04:14:44;4.30;;;3.65;;
6757;SDS011;3416;53.074;8.822;2023-01-08T04:17:13;5.03;;;3.60;;
6757;SDS011;3416;53.074;8.822;2023-01-08T04:19:39;5.28;;;3.10;;
6757;SDS011;3416;53.074;8.822;2023-01-08T04:22:08;8.93;;;7.00;;
6757;SDS011;3416;53.074;8.822;2023-01-08T04:24:35;4.80;;;3.78;;
6757;SDS011;3416;53.074;8.822;2023-01-08T04:27:02;4.47;;;4.07;;
6757;SDS011;3416;53.074;8.822;2023-01-08T04:29:29;4.18;;;3.35;;
6757;SDS011;3416;53.074;8.822;2023-01-08T04:31:56;5.00;;;3.58;;
6757;SDS011;3416;53.074;8.822;2023-01-08T04:34:24;5.95;;;4.55;;
6757;SDS011;3416;53.074;8.822;2023-01-08T04:36:51;5.15;;;3.83;;
6757;SDS011;3416;53.074;8.822;2023-01-08T04:39:17;6.63;;;4.00;;
6757;SDS011;3416;53.074;8.822;2023-01-08T04:41:44;5.75;;;4.28;;
6757;SDS011;3416;53.074;8.822;2023-01-08T04:44:11;6.22;;;4.47;;
6757;SDS011;3416;53.074;8.822;2023-01-08T04:46:38;8.68;;;5.05;;
6757;SDS011;3416;53.074;8.822;2023-01-08T04:49:05;7.45;;;3.90;;
6757;SDS011;3416;53.074;8.822;2023-01-08T04:51:33;4.15;;;3.20;;
6757;SDS011;3416;53.074;8.822;2023-01-08T04:54:00;4.32;;;3.40;;
6757;SDS011;3416;53.074;8.822;2023-01-08T04:56:27;4.10;;;3.17;;
6757;SDS011;3416;53.074;8.822;2023-01-08T04:58:53;4.05;;;3.72;;
6757;SDS011;3416;53.074;8.822;2023-01-08T05:01:21;3.05;;;2.75;;
6757;SDS011;3416;53.074;8.822;2023-01-08T05:03:51;3.90;;;3.17;;
6757;SDS011;3416;53.074;8.822;2023-01-08T05:06:19;3.78;;;3.35;;
6757;SDS011;3416;53.074;8.822;2023-01-08T05:08:47;5.07;;;4.40;;
6757;SDS011;3416;53.074;8.822;2023-01-08T05:11:14;5.07;;;3.88;;
6757;SDS011;3416;53.074;8.822;2023-01-08T05:13:41;4.55;;;3.80;;
6757;SDS011;3416;53.074;8.822;2023-01-08T05:16:08;5.13;;;3.38;;
6757;SDS011;3416;53.074;8.822;2023-01-08T05:18:35;4.20;;;3.58;;
6757;SDS011;3416;53.074;8.822;2023-01-08T05:21:02;5.72;;;3.25;;
6757;SDS011;3416;53.074;8.822;2023-01-08T05:23:30;5.93;;;3.83;;
6757;SDS011;3416;53.074;8.822;2023-01-08T05:25:59;3.33;;;3.03;;
6757;SDS011;3416;53.074;8.822;2023-01-08T05:28:28;5.10;;;3.40;;
6757;SDS011;3416;53.074;8.822;2023-01-08T05:30:55;3.42;;;3.13;;
6757;SDS011;3416;53.074;8.822;2023-01-08T05:33:23;4.60;;;3.75;;
6757;SDS011;3416;53.074;8.822;2023-01-08T05:35:50;3.35;;;3.05;;
6757;SDS011;3416;53.074;8.822;2023-01-08T05:38:17;5.20;;;3.78;;
6757;SDS011;3416;53.074;8.822;2023-01-08T05:40:43;6.57;;;4.50;;
6757;SDS011;3416;53.074;8.822;2023-01-08T05:43:12;4.00;;;3.45;;
6757;SDS011;3416;53.074;8.822;2023-01-08T05:45:39;3.58;;;2.92;;
6757;SDS011;3416;53.074;8.822;2023-01-08T05:48:06;4.88;;;2.95;;
6757;SDS011;3416;53.074;8.822;2023-01-08T05:50:33;3.50;;;3.20;;
6757;SDS011;3416;53.074;8.822;2023-01-08T05:53:00;3.88;;;3.05;;
6757;SDS011;3416;53.074;8.822;2023-01-08T05:55:31;3.75;;;3.30;;
6757;SDS011;3416;53.074;8.822;2023-01-08T05:57:59;4.78;;;3.95;;
6757;SDS011;3416;53.074;8.822;2023-01-08T06:00:27;3.97;;;3.22;;
6757;SDS011;3416;53.074;8.822;2023-01-08T06:02:54;5.68;;;3.75;;
6757;SDS011;3416;53.074;8.822;2023-01-08T06:05:21;7.07;;;3.22;;
6757;SDS011;3416;53.074;8.822;2023-01-08T06:07:48;4.40;;;3.65;;
6757;SDS011;3416;53.074;8.822;2023-01-08T06:10:15;3.97;;;3.15;;
6757;SDS011;3416;53.074;8.822;2023-01-08T06:12:41;4.47;;;3.20;;
6757;SDS011;3416;53.074;8.822;2023-01-08T06:15:09;2.70;;;2.50;;
6757;SDS011;3416;53.074;8.822;2023-01-08T06:17:38;8.23;;;3.00;;
6757;SDS011;3416;53.074;8.822;2023-01-08T06:20:05;3.80;;;3.47;;
6757;SDS011;3416;53.074;8.822;2023-01-08T06:22:33;4.05;;;2.67;;
6757;SDS011;3416;53.074;8.822;2023-01-08T06:25:01;6.03;;;2.60;;
6757;SDS011;3416;53.074;8.822;2023-01-08T06:27:28;4.35;;;2.53;;
6757;SDS011;3416;53.074;8.822;2023-01-08T06:29:55;8.68;;;3.15;;
6757;SDS011;3416;53.074;8.822;2023-01-08T06:32:22;3.25;;;2.95;;
6757;SDS011;3416;53.074;8.822;2023-01-08T06:34:50;4.40;;;2.88;;
6757;SDS011;3416;53.074;8.822;2023-01-08T06:37:18;7.35;;;2.80;;
6757;SDS011;3416;53.074;8.822;2023-01-08T06:46:52;3.72;;;2.78;;
6757;SDS011;3416;53.074;8.822;2023-01-08T07:07:13;4.30;;;3.28;;
6757;SDS011;3416;53.074;8.822;2023-01-08T07:09:41;2.70;;;2.35;;
6757;SDS011;3416;53.074;8.822;2023-01-08T07:12:10;4.10;;;3.50;;
6757;SDS011;3416;53.074;8.822;2023-01-08T07:14:37;2.65;;;2.17;;
6757;SDS011;3416;53.074;8.822;2023-01-08T07:17:06;2.08;;;1.88;;
6757;SDS011;3416;53.074;8.822;2023-01-08T07:19:33;2.90;;;2.60;;
6757;SDS011;3416;53.074;8.822;2023-01-08T07:22:00;2.90;;;2.50;;
6757;SDS011;3416;53.074;8.822;2023-01-08T07:24:29;4.65;;;2.97;;
6757;SDS011;3416;53.074;8.822;2023-01-08T07:26:56;3.67;;;2.78;;
6757;SDS011;3416;53.074;8.822;2023-01-08T07:29:23;3.03;;;2.72;;
6757;SDS011;3416;53.074;8.822;2023-01-08T07:31:51;3.08;;;2.55;;
6757;SDS011;3416;53.074;8.822;2023-01-08T07:34:18;3.17;;;2.88;;
6757;SDS011;3416;53.074;8.822;2023-01-08T07:36:51;4.18;;;2.20;;
6757;SDS011;3416;53.074;8.822;2023-01-08T07:39:18;5.85;;;2.45;;
6757;SDS011;3416;53.074;8.822;2023-01-08T07:41:46;5.05;;;3.55;;
6757;SDS011;3416;53.074;8.822;2023-01-08T07:44:17;2.80;;;2.05;;
6757;SDS011;3416;53.074;8.822;2023-01-08T07:46:55;3.35;;;3.05;;
6757;SDS011;3416;53.074;8.822;2023-01-08T07:49:22;2.97;;;2.45;;
6757;SDS011;3416;53.074;8.822;2023-01-08T07:51:49;3.88;;;2.70;;
6757;SDS011;3416;53.074;8.822;2023-01-08T07:54:22;3.03;;;2.50;;
6757;SDS011;3416;53.074;8.822;2023-01-08T07:56:50;2.42;;;2.22;;
6757;SDS011;3416;53.074;8.822;2023-01-08T07:59:19;5.60;;;3.22;;
6757;SDS011;3416;53.074;8.822;2023-01-08T08:01:47;5.22;;;2.97;;
6757;SDS011;3416;53.074;8.822;2023-01-08T08:04:16;5.18;;;2.72;;
6757;SDS011;3416;53.074;8.822;2023-01-08T08:06:43;3.95;;;2.85;;
6757;SDS011;3416;53.074;8.822;2023-01-08T08:09:10;3.55;;;3.00;;
6757;SDS011;3416;53.074;8.822;2023-01-08T08:11:37;4.55;;;2.65;;
6757;SDS011;3416;53.074;8.822;2023-01-08T08:14:06;2.50;;;2.30;;
6757;SDS011;3416;53.074;8.822;2023-01-08T08:16:33;3.80;;;2.95;;
6757;SDS011;3416;53.074;8.822;2023-01-08T08:19:02;3.95;;;2.53;;
6757;SDS011;3416;53.074;8.822;2023-01-08T08:21:32;3.72;;;2.60;;
6757;SDS011;3416;53.074;8.822;2023-01-08T08:23:59;5.43;;;3.17;;
6757;SDS011;3416;53.074;8.822;2023-01-08T08:26:26;3.75;;;2.50;;
6757;SDS011;3416;53.074;8.822;2023-01-08T08:28:53;3.70;;;2.80;;
6757;SDS011;3416;53.074;8.822;2023-01-08T08:31:21;6.85;;;2.78;;
6757;SDS011;3416;53.074;8.822;2023-01-08T08:37:05;4.45;;;3.75;;
6757;SDS011;3416;53.074;8.822;2023-01-08T08:39:33;5.70;;;3.00;;
6757;SDS011;3416;53.074;8.822;2023-01-08T08:42:18;5.60;;;3.22;;
6757;SDS011;3416;53.074;8.822;2023-01-08T08:45:08;3.95;;;2.50;;
6757;SDS011;3416;53.074;8.822;2023-01-08T08:47:52;3.67;;;2.45;;
6757;SDS011;3416;53.074;8.822;2023-01-08T08:50:46;3.63;;;2.75;;
6757;SDS011;3416;53.074;8.822;2023-01-08T08:58:55;3.20;;;2.45;;
6757;SDS011;3416;53.074;8.822;2023-01-08T09:00:10;3.83;;;3.10;;
6757;SDS011;3416;53.074;8.822;2023-01-08T09:10:08;3.08;;;2.28;;
6757;SDS011;3416;53.074;8.822;2023-01-08T09:12:52;3.30;;;2.83;;
6757;SDS011;3416;53.074;8.822;2023-01-08T09:15:19;4.47;;;3.40;;
6757;SDS011;3416;53.074;8.822;2023-01-08T09:17:51;4.43;;;3.00;;
6757;SDS011;3416;53.074;8.822;2023-01-08T09:20:20;3.65;;;2.38;;
6757;SDS011;3416;53.074;8.822;2023-01-08T09:23:01;3.83;;;3.00;;
6757;SDS011;3416;53.074;8.822;2023-01-08T09:25:44;3.15;;;2.85;;
6757;SDS011;3416;53.074;8.822;2023-01-08T09:28:12;3.10;;;2.90;;
6757;SDS011;3416;53.074;8.822;2023-01-08T09:30:39;4.65;;;2.70;;
6757;SDS011;3416;53.074;8.822;2023-01-08T09:33:10;6.38;;;2.70;;
6757;SDS011;3416;53.074;8.822;2023-01-08T09:38:28;4.45;;;3.15;;
6757;SDS011;3416;53.074;8.822;2023-01-08T09:40:57;5.25;;;2.90;;
6757;SDS011;3416;53.074;8.822;2023-01-08T09:43:29;3.85;;;2.80;;
6757;SDS011;3416;53.074;8.822;2023-01-08T09:48:57;3.83;;;2.42;;
6757;SDS011;3416;53.074;8.822;2023-01-08T09:52:28;5.50;;;3.60;;
6757;SDS011;3416;53.074;8.822;2023-01-08T10:01:33;2.80;;;2.45;;
6757;SDS011;3416;53.074;8.822;2023-01-08T10:04:02;2.85;;;2.55;;
6757;SDS011;3416;53.074;8.822;2023-01-08T10:06:31;4.80;;;2.90;;
6757;SDS011;3416;53.074;8.822;2023-01-08T10:08:58;5.90;;;2.83;;
6757;SDS011;3416;53.074;8.822;2023-01-08T10:11:25;2.22;;;2.03;;
6757;SDS011;3416;53.074;8.822;2023-01-08T10:13:57;5.25;;;3.33;;
6757;SDS011;3416;53.074;8.822;2023-01-08T10:16:26;3.25;;;2.90;;
6757;SDS011;3416;53.074;8.822;2023-01-08T10:18:57;4.70;;;4.07;;
6757;SDS011;3416;53.074;8.822;2023-01-08T10:21:26;4.57;;;2.50;;
6757;SDS011;3416;53.074;8.822;2023-01-08T10:23:55;6.18;;;3.08;;
6757;SDS011;3416;53.074;8.822;2023-01-08T10:26:26;4.28;;;3.13;;
6757;SDS011;3416;53.074;8.822;2023-01-08T10:29:07;4.72;;;3.42;;
6757;SDS011;3416;53.074;8.822;2023-01-08T10:31:46;4.05;;;3.17;;
6757;SDS011;3416;53.074;8.822;2023-01-08T10:34:20;6.43;;;2.95;;
6757;SDS011;3416;53.074;8.822;2023-01-08T10:36:51;4.78;;;2.78;;
6757;SDS011;3416;53.074;8.822;2023-01-08T10:39:21;5.10;;;2.85;;
6757;SDS011;3416;53.074;8.822;2023-01-08T10:41:50;4.82;;;3.60;;
6757;SDS011;3416;53.074;8.822;2023-01-08T10:44:20;6.47;;;3.53;;
6757;SDS011;3416;53.074;8.822;2023-01-08T10:46:49;2.47;;;1.73;;
6757;SDS011;3416;53.074;8.822;2023-01-08T10:49:24;4.82;;;1.70;;
6757;SDS011;3416;53.074;8.822;2023-01-08T10:51:55;2.80;;;1.90;;
6757;SDS011;3416;53.074;8.822;2023-01-08T10:54:25;3.63;;;1.80;;
6757;SDS011;3416;53.074;8.822;2023-01-08T10:56:58;2.65;;;1.90;;
6757;SDS011;3416;53.074;8.822;2023-01-08T10:59:25;8.65;;;1.98;;
6757;SDS011;3416;53.074;8.822;2023-01-08T11:01:53;2.45;;;1.38;;
6757;SDS011;3416;53.074;8.822;2023-01-08T11:04:25;2.60;;;1.92;;
6757;SDS011;3416;53.074;8.822;2023-01-08T11:06:56;2.38;;;1.75;;
6757;SDS011;3416;53.074;8.822;2023-01-08T11:09:27;4.47;;;1.75;;
6757;SDS011;3416;53.074;8.822;2023-01-08T11:11:57;2.95;;;1.80;;
6757;SDS011;3416;53.074;8.822;2023-01-08T11:14:26;3.03;;;1.75;;
6757;SDS011;3416;53.074;8.822;2023-01-08T11:16:55;2.58;;;1.60;;
6757;SDS011;3416;53.074;8.822;2023-01-08T11:19:25;1.70;;;1.60;;
6757;SDS011;3416;53.074;8.822;2023-01-08T11:21:54;1.80;;;1.55;;
6757;SDS011;3416;53.074;8.822;2023-01-08T11:24:25;2.65;;;1.38;;
6757;SDS011;3416;53.074;8.822;2023-01-08T11:26:55;6.72;;;1.90;;
6757;SDS011;3416;53.074;8.822;2023-01-08T11:29:28;4.32;;;1.52;;
6757;SDS011;3416;53.074;8.822;2023-01-08T11:32:04;1.50;;;1.00;;
6757;SDS011;3416;53.074;8.822;2023-01-08T11:34:55;6.65;;;1.33;;
6757;SDS011;3416;53.074;8.822;2023-01-08T11:37:27;4.35;;;1.30;;
6757;SDS011;3416;53.074;8.822;2023-01-08T11:39:58;3.20;;;1.35;;
6757;SDS011;3416;53.074;8.822;2023-01-08T11:42:33;2.67;;;1.13;;
6757;SDS011;3416;53.074;8.822;2023-01-08T11:45:13;2.17;;;1.33;;
6757;SDS011;3416;53.074;8.822;2023-01-08T11:47:50;7.05;;;1.67;;
6757;SDS011;3416;53.074;8.822;2023-01-08T11:50:40;3.38;;;1.80;;
6757;SDS011;3416;53.074;8.822;2023-01-08T11:53:18;4.00;;;1.10;;
6757;SDS011;3416;53.074;8.822;2023-01-08T11:55:52;3.53;;;1.95;;
6757;SDS011;3416;53.074;8.822;2023-01-08T11:58:29;2.88;;;1.80;;
6757;SDS011;3416;53.074;8.822;2023-01-08T12:01:13;5.03;;;1.38;;
6757;SDS011;3416;53.074;8.822;2023-01-08T12:03:54;3.90;;;1.20;;
6757;SDS011;3416;53.074;8.822;2023-01-08T12:06:34;5.30;;;2.00;;
6757;SDS011;3416;53.074;8.822;2023-01-08T12:09:11;4.65;;;1.60;;
6757;SDS011;3416;53.074;8.822;2023-01-08T12:11:45;17.55;;;2.00;;
6757;SDS011;3416;53.074;8.822;2023-01-08T12:14:29;6.28;;;1.80;;
6757;SDS011;3416;53.074;8.822;2023-01-08T12:17:29;6.72;;;1.98;;
6757;SDS011;3416;53.074;8.822;2023-01-08T12:20:11;4.55;;;1.20;;
6757;SDS011;3416;53.074;8.822;2023-01-08T12:22:50;5.07;;;1.60;;
6757;SDS011;3416;53.074;8.822;2023-01-08T12:25:33;5.60;;;1.30;;
6757;SDS011;3416;53.074;8.822;2023-01-08T12:28:14;7.57;;;2.22;;
6757;SDS011;3416;53.074;8.822;2023-01-08T12:30:59;8.27;;;1.75;;
6757;SDS011;3416;53.074;8.822;2023-01-08T12:33:47;6.68;;;1.77;;
6757;SDS011;3416;53.074;8.822;2023-01-08T12:36:17;7.10;;;2.10;;
6757;SDS011;3416;53.074;8.822;2023-01-08T12:38:51;5.15;;;1.80;;
6757;SDS011;3416;53.074;8.822;2023-01-08T12:41:20;2.95;;;1.60;;
6757;SDS011;3416;53.074;8.822;2023-01-08T12:43:50;6.20;;;2.70;;
6757;SDS011;3416;53.074;8.822;2023-01-08T12:46:20;8.98;;;3.15;;
6757;SDS011;3416;53.074;8.822;2023-01-08T12:48:50;10.48;;;2.65;;
6757;SDS011;3416;53.074;8.822;2023-01-08T12:51:19;6.30;;;2.13;;
6757;SDS011;3416;53.074;8.822;2023-01-08T12:53:54;6.18;;;1.95;;
6757;SDS011;3416;53.074;8.822;2023-01-08T12:56:30;8.00;;;2.35;;
6757;SDS011;3416;53.074;8.822;2023-01-08T12:59:20;8.65;;;2.20;;
6757;SDS011;3416;53.074;8.822;2023-01-08T13:01:56;7.35;;;2.10;;
6757;SDS011;3416;53.074;8.822;2023-01-08T13:04:37;6.90;;;1.70;;
6757;SDS011;3416;53.074;8.822;2023-01-08T13:07:05;8.25;;;2.25;;
6757;SDS011;3416;53.074;8.822;2023-01-08T13:09:38;10.73;;;2.67;;
6757;SDS011;3416;53.074;8.822;2023-01-08T13:12:05;8.68;;;1.80;;
6757;SDS011;3416;53.074;8.822;2023-01-08T13:14:39;10.98;;;2.65;;
6757;SDS011;3416;53.074;8.822;2023-01-08T13:17:14;7.47;;;1.73;;
6757;SDS011;3416;53.074;8.822;2023-01-08T13:19:44;6.85;;;1.92;;
6757;SDS011;3416;53.074;8.822;2023-01-08T13:22:24;3.78;;;1.95;;
6757;SDS011;3416;53.074;8.822;2023-01-08T13:25:08;5.85;;;2.40;;
6757;SDS011;3416;53.074;8.822;2023-01-08T13:27:47;16.10;;;2.65;;
6757;SDS011;3416;53.074;8.822;2023-01-08T13:33:35;8.63;;;2.45;;
6757;SDS011;3416;53.074;8.822;2023-01-08T13:36:11;8.55;;;2.97;;
6757;SDS011;3416;53.074;8.822;2023-01-08T13:38:45;9.13;;;1.90;;
6757;SDS011;3416;53.074;8.822;2023-01-08T13:44:40;7.38;;;1.95;;
6757;SDS011;3416;53.074;8.822;2023-01-08T13:47:16;9.32;;;2.58;;
6757;SDS011;3416;53.074;8.822;2023-01-08T13:49:47;6.75;;;2.20;;
6757;SDS011;3416;53.074;8.822;2023-01-08T13:52:36;11.82;;;1.70;;
6757;SDS011;3416;53.074;8.822;2023-01-08T13:55:29;5.95;;;1.73;;
6757;SDS011;3416;53.074;8.822;2023-01-08T13:58:02;5.05;;;2.40;;
6757;SDS011;3416;53.074;8.822;2023-01-08T14:00:54;5.68;;;2.80;;
6757;SDS011;3416;53.074;8.822;2023-01-08T14:03:23;11.07;;;2.65;;
6757;SDS011;3416;53.074;8.822;2023-01-08T14:05:51;8.23;;;1.98;;
6757;SDS011;3416;53.074;8.822;2023-01-08T14:08:22;7.53;;;1.70;;
6757;SDS011;3416;53.074;8.822;2023-01-08T14:10:49;5.38;;;3.17;;
6757;SDS011;3416;53.074;8.822;2023-01-08T14:13:18;4.85;;;1.85;;
6757;SDS011;3416;53.074;8.822;2023-01-08T14:15:52;3.60;;;2.20;;
6757;SDS011;3416;53.074;8.822;2023-01-08T14:18:20;10.73;;;2.70;;
6757;SDS011;3416;53.074;8.822;2023-01-08T14:20:48;11.60;;;3.05;;
6757;SDS011;3416;53.074;8.822;2023-01-08T14:23:17;8.70;;;2.72;;
6757;SDS011;3416;53.074;8.822;2023-01-08T14:25:48;5.43;;;1.83;;
6757;SDS011;3416;53.074;8.822;2023-01-08T14:28:17;3.10;;;1.50;;
6757;SDS011;3416;53.074;8.822;2023-01-08T14:30:48;6.72;;;2.13;;
6757;SDS011;3416;53.074;8.822;2023-01-08T14:33:17;6.30;;;1.95;;
6757;SDS011;3416;53.074;8.822;2023-01-08T14:35:50;6.87;;;2.00;;
6757;SDS011;3416;53.074;8.822;2023-01-08T14:38:39;5.30;;;1.75;;
6757;SDS011;3416;53.074;8.822;2023-01-08T14:41:16;7.35;;;2.40;;
6757;SDS011;3416;53.074;8.822;2023-01-08T14:44:12;5.88;;;1.88;;
6757;SDS011;3416;53.074;8.822;2023-01-08T14:46:41;10.10;;;3.55;;
6757;SDS011;3416;53.074;8.822;2023-01-08T14:49:14;14.88;;;3.95;;
6757;SDS011;3416;53.074;8.822;2023-01-08T14:51:45;11.10;;;2.92;;
6757;SDS011;3416;53.074;8.822;2023-01-08T14:54:12;8.93;;;2.83;;
6757;SDS011;3416;53.074;8.822;2023-01-08T14:56:46;7.25;;;2.85;;
6757;SDS011;3416;53.074;8.822;2023-01-08T14:59:14;8.65;;;2.38;;
6757;SDS011;3416;53.074;8.822;2023-01-08T15:01:48;3.00;;;1.90;;
6757;SDS011;3416;53.074;8.822;2023-01-08T15:04:21;9.93;;;2.70;;
6757;SDS011;3416;53.074;8.822;2023-01-08T15:06:49;11.45;;;3.10;;
6757;SDS011;3416;53.074;8.822;2023-01-08T15:09:20;8.25;;;3.08;;
6757;SDS011;3416;53.074;8.822;2023-01-08T15:11:51;8.55;;;4.35;;
6757;SDS011;3416;53.074;8.822;2023-01-08T15:14:21;7.38;;;3.45;;
6757;SDS011;3416;53.074;8.822;2023-01-08T15:16:49;4.78;;;2.85;;
6757;SDS011;3416;53.074;8.822;2023-01-08T15:19:21;12.73;;;3.65;;
6757;SDS011;3416;53.074;8.822;2023-01-08T15:21:50;6.45;;;3.33;;
6757;SDS011;3416;53.074;8.822;2023-01-08T15:24:20;11.13;;;3.28;;
6757;SDS011;3416;53.074;8.822;2023-01-08T15:26:48;10.75;;;2.63;;
6757;SDS011;3416;53.074;8.822;2023-01-08T15:29:16;6.68;;;2.75;;
6757;SDS011;3416;53.074;8.822;2023-01-08T15:31:45;4.97;;;3.00;;
6757;SDS011;3416;53.074;8.822;2023-01-08T15:34:13;7.07;;;2.10;;
6757;SDS011;3416;53.074;8.822;2023-01-08T15:36:45;9.23;;;3.25;;
6757;SDS011;3416;53.074;8.822;2023-01-08T15:39:12;5.43;;;2.88;;
6757;SDS011;3416;53.074;8.822;2023-01-08T15:41:39;8.60;;;2.92;;
6757;SDS011;3416;53.074;8.822;2023-01-08T15:44:24;14.82;;;4.10;;
6757;SDS011;3416;53.074;8.822;2023-01-08T15:46:51;9.70;;;3.08;;
6757;SDS011;3416;53.074;8.822;2023-01-08T15:49:18;12.32;;;4.20;;
6757;SDS011;3416;53.074;8.822;2023-01-08T15:51:47;18.67;;;6.03;;
6757;SDS011;3416;53.074;8.822;2023-01-08T15:54:15;5.70;;;3.67;;
6757;SDS011;3416;53.074;8.822;2023-01-08T15:56:44;8.18;;;4.38;;
6757;SDS011;3416;53.074;8.822;2023-01-08T15:59:11;8.25;;;5.05;;
6757;SDS011;3416;53.074;8.822;2023-01-08T16:01:38;8.00;;;2.65;;
6757;SDS011;3416;53.074;8.822;2023-01-08T16:04:05;9.98;;;2.40;;
6757;SDS011;3416;53.074;8.822;2023-01-08T16:06:31;10.20;;;3.60;;
6757;SDS011;3416;53.074;8.822;2023-01-08T16:09:01;4.85;;;2.53;;
6757;SDS011;3416;53.074;8.822;2023-01-08T16:11:29;8.95;;;2.25;;
6757;SDS011;3416;53.074;8.822;2023-01-08T16:13:55;6.13;;;2.75;;
6757;SDS011;3416;53.074;8.822;2023-01-08T16:16:22;6.72;;;1.90;;
6757;SDS011;3416;53.074;8.822;2023-01-08T16:18:49;3.17;;;1.38;;
6757;SDS011;3416;53.074;8.822;2023-01-08T16:21:17;6.60;;;2.05;;
6757;SDS011;3416;53.074;8.822;2023-01-08T16:23:43;3.25;;;1.50;;
6757;SDS011;3416;53.074;8.822;2023-01-08T16:26:12;2.78;;;1.23;;
6757;SDS011;3416;53.074;8.822;2023-01-08T16:28:40;2.70;;;1.45;;
6757;SDS011;3416;53.074;8.822;2023-01-08T16:31:08;3.83;;;0.98;;
6757;SDS011;3416;53.074;8.822;2023-01-08T16:33:35;3.88;;;1.40;;
6757;SDS011;3416;53.074;8.822;2023-01-08T16:36:03;2.72;;;1.20;;
6757;SDS011;3416;53.074;8.822;2023-01-08T16:38:32;1.58;;;1.38;;
6757;SDS011;3416;53.074;8.822;2023-01-08T16:40:59;3.75;;;1.40;;